Time;durP1;ratioP1;P1;durP2;ratioP2;P2;SDS_P1;SDS_P2;PMS_P1;PMS_P2;Temp;Humidity;BMP_temperature;BMP_pressure;BME280_temperature;BME280_humidity;BME280_pressure;Samples;Min_cycle;Max_cycle;Signal;HPM_P1;HPM_P2
2022/07/16 00:01:23;;;;;;;0.63;0.63;;;;;;;20.47;47.41;95761.19;4418103;32;20226;-50
2022/07/16 00:04:00;;;;;;;0.50;0.50;;;;;;;20.14;47.28;95761.44;4416685;32;20192;-50
2022/07/16 00:06:28;;;;;;;0.83;0.83;;;;;;;20.22;47.31;95760.50;4355900;32;20198;-45
2022/07/16 00:08:55;;;;;;;0.60;0.60;;;;;;;20.17;49.25;95754.56;4417532;32;20270;-51
2022/07/16 00:11:22;;;;;;;0.40;0.40;;;;;;;20.15;47.23;95756.84;4422764;32;20179;-47
2022/07/16 00:13:49;;;;;;;0.40;0.30;;;;;;;20.22;49.23;95763.19;4414178;32;20184;-51
2022/07/16 00:16:15;;;;;;;0.73;0.70;;;;;;;20.15;47.66;95759.53;4418030;32;20184;-49
2022/07/16 00:21:25;;;;;;;0.50;0.50;;;;;;;20.04;47.59;95753.84;4406212;32;20221;-51
2022/07/16 00:23:51;;;;;;;0.73;0.73;;;;;;;20.03;48.15;95748.81;4415433;32;20184;-53
2022/07/16 00:26:18;;;;;;;0.30;0.30;;;;;;;20.11;50.76;95747.87;4414716;32;20194;-51
2022/07/16 00:28:43;;;;;;;0.47;0.47;;;;;;;19.97;48.03;95750.16;4417419;32;20187;-46
2022/07/16 00:31:10;;;;;;;1.03;1.03;;;;;;;20.18;49.71;95761.53;4416686;32;20191;-50
2022/07/16 00:33:36;;;;;;;0.77;0.40;;;;;;;20.26;49.53;95752.53;4416928;32;20195;-47
2022/07/16 00:36:05;;;;;;;2.03;1.93;;;;;;;20.47;51.87;95753.13;4414517;32;20207;-46
2022/07/16 00:38:32;;;;;;;1.80;1.53;;;;;;;20.58;49.40;95746.06;4388747;32;20250;-50
2022/07/16 00:40:58;;;;;;;1.93;1.80;;;;;;;20.48;48.87;95749.28;4412554;32;20184;-64
2022/07/16 00:43:23;;;;;;;5.40;4.97;;;;;;;20.39;47.23;95745.19;4418106;32;20211;-65
2022/07/16 00:45:49;;;;;;;4.90;3.27;;;;;;;20.49;47.08;95740.06;4423012;32;20263;-64
2022/07/16 00:48:14;;;;;;;6.23;4.33;;;;;;;20.35;48.67;95742.38;4418171;32;20176;-64
2022/07/16 00:50:40;;;;;;;3.00;2.23;;;;;;;20.33;48.62;95741.94;4421232;32;20245;-64
2022/07/16 00:53:09;;;;;;;1.47;1.47;;;;;;;20.24;48.88;95744.00;4425409;32;20240;-64
2022/07/16 00:55:34;;;;;;;10.33;3.57;;;;;;;20.21;48.28;95750.06;4418665;32;20255;-64
2022/07/16 00:58:00;;;;;;;1.70;1.37;;;;;;;20.17;48.81;95747.28;4416752;32;20274;-64
2022/07/16 01:00:26;;;;;;;0.60;0.60;;;;;;;20.15;50.32;95744.16;4411042;32;20184;-64
2022/07/16 01:02:52;;;;;;;1.03;1.03;;;;;;;20.27;49.87;95740.63;4397731;32;20215;-64
2022/07/16 01:05:18;;;;;;;3.47;1.20;;;;;;;20.26;49.49;95752.53;4404807;32;20184;-64
2022/07/16 01:07:45;;;;;;;1.60;0.60;;;;;;;20.31;48.05;95751.50;4404066;32;20206;-64
2022/07/16 01:10:13;;;;;;;0.60;0.50;;;;;;;20.29;48.82;95756.44;4397660;32;20231;-64
2022/07/16 01:12:38;;;;;;;1.30;1.20;;;;;;;20.20;49.07;95748.50;4402429;32;20180;-64
2022/07/16 01:15:05;;;;;;;7.63;1.23;;;;;;;20.13;49.77;95753.72;4403304;32;20195;-64
2022/07/16 01:17:30;;;;;;;1.00;1.00;;;;;;;20.12;49.25;95754.84;4405202;32;20307;-64
2022/07/16 01:19:56;;;;;;;3.37;1.03;;;;;;;20.16;49.49;95753.03;4400470;32;20176;-64
2022/07/16 01:22:23;;;;;;;0.60;0.60;;;;;;;20.19;50.33;95746.94;4403168;32;20241;-64
2022/07/16 01:24:49;;;;;;;1.00;1.00;;;;;;;20.08;49.67;95743.97;4394607;32;20192;-64
2022/07/16 01:27:16;;;;;;;2.37;0.80;;;;;;;20.12;51.21;95752.94;4395139;32;20434;-64
2022/07/16 01:29:42;;;;;;;0.60;0.60;;;;;;;20.22;52.13;95755.13;4401691;32;20336;-64
2022/07/16 01:32:09;;;;;;;0.70;0.70;;;;;;;20.29;51.14;95751.84;4402240;32;20191;-64
2022/07/16 01:34:37;;;;;;;0.30;0.30;;;;;;;20.20;50.74;95754.66;4399690;32;20231;-64
2022/07/16 01:37:06;;;;;;;0.60;0.60;;;;;;;20.32;51.19;95759.22;4404463;32;20180;-64
2022/07/16 01:39:36;;;;;;;0.70;0.70;;;;;;;20.18;51.52;95756.13;4403799;32;20188;-64
2022/07/16 01:42:04;;;;;;;1.20;1.20;;;;;;;20.25;50.80;95759.81;4396588;32;20208;-64
2022/07/16 01:44:34;;;;;;;1.03;0.93;;;;;;;20.14;52.60;95763.37;4404181;32;20195;-64
2022/07/16 01:46:59;;;;;;;1.90;0.90;;;;;;;20.23;52.04;95761.28;4403569;32;20259;-64
2022/07/16 01:49:25;;;;;;;0.43;0.43;;;;;;;20.22;51.61;95757.81;4403319;32;20176;-64
2022/07/16 01:51:51;;;;;;;0.80;0.77;;;;;;;20.21;51.50;95760.84;4402559;32;20188;-64
2022/07/16 01:54:17;;;;;;;2.60;1.50;;;;;;;20.17;52.11;95754.56;4399903;32;20275;-64
2022/07/16 01:56:43;;;;;;;0.50;0.50;;;;;;;20.16;50.67;95758.41;4402324;32;20193;-64
2022/07/16 01:59:09;;;;;;;0.47;0.47;;;;;;;20.20;52.30;95757.38;4401861;32;20239;-64
2022/07/16 02:01:34;;;;;;;0.60;0.60;;;;;;;20.19;51.59;95760.41;4413289;32;20192;-64
2022/07/16 02:04:00;;;;;;;0.40;0.40;;;;;;;20.16;51.66;95755.72;4418151;32;20245;-64
2022/07/16 02:06:25;;;;;;;0.50;0.50;;;;;;;20.12;51.93;95762.91;4415669;32;20176;-64
2022/07/16 02:08:51;;;;;;;0.80;0.80;;;;;;;19.95;53.17;95764.00;4411124;32;20187;-64
2022/07/16 02:11:17;;;;;;;0.70;0.70;;;;;;;20.08;50.90;95767.41;4420043;32;20188;-64
2022/07/16 02:13:43;;;;;;;1.33;1.03;;;;;;;19.97;51.01;95753.63;4415571;32;20228;-64
2022/07/16 02:16:10;;;;;;;0.43;0.43;;;;;;;19.80;51.19;95764.69;4411893;32;20183;-64
2022/07/16 02:18:37;;;;;;;0.53;0.53;;;;;;;19.79;51.95;95761.22;4414024;32;20214;-64
2022/07/16 02:21:05;;;;;;;0.80;0.80;;;;;;;19.59;52.95;95767.53;4416788;32;20210;-65
2022/07/16 02:23:32;;;;;;;0.60;0.60;;;;;;;19.65;53.15;95768.88;4420063;32;20242;-64
2022/07/16 02:25:57;;;;;;;1.07;0.80;;;;;;;19.65;52.45;95766.19;4418447;32;20219;-64
2022/07/16 02:28:22;;;;;;;0.80;0.80;;;;;;;19.80;54.49;95770.87;4415546;32;20167;-64
2022/07/16 02:30:49;;;;;;;0.40;0.40;;;;;;;19.72;53.15;95771.03;4419115;32;20188;-64
2022/07/16 02:33:19;;;;;;;0.50;0.50;;;;;;;19.72;52.13;95769.09;4410446;32;20202;-63
2022/07/16 02:35:45;;;;;;;0.47;0.47;;;;;;;19.59;51.60;95772.94;4413785;32;20224;-63
2022/07/16 02:38:12;;;;;;;0.37;0.37;;;;;;;19.55;53.11;95772.03;4418737;32;20226;-63
2022/07/16 02:40:38;;;;;;;1.57;1.17;;;;;;;19.54;52.00;95775.84;4404911;32;20210;-63
2022/07/16 02:43:06;;;;;;;0.67;0.67;;;;;;;19.49;52.51;95773.38;4415525;32;20188;-63
2022/07/16 02:45:34;;;;;;;0.60;0.60;;;;;;;19.53;53.70;95771.63;4409641;32;20195;-63
2022/07/16 02:48:03;;;;;;;0.57;0.57;;;;;;;19.64;53.94;95769.22;4417102;32;20194;-63
2022/07/16 02:50:28;;;;;;;0.83;0.83;;;;;;;19.55;52.93;95766.66;4417689;32;20187;-63
2022/07/16 02:52:54;;;;;;;2.73;0.87;;;;;;;19.64;53.95;95772.69;4414696;32;20198;-63
2022/07/16 02:55:20;;;;;;;0.30;0.30;;;;;;;19.63;53.49;95773.03;4397145;32;20200;-63
2022/07/16 02:57:45;;;;;;;0.60;0.60;;;;;;;19.67;53.71;95776.63;4400411;32;20201;-63
2022/07/16 03:00:12;;;;;;;0.43;0.43;;;;;;;19.74;54.08;95774.94;4411545;32;20281;-63
2022/07/16 03:02:39;;;;;;;0.90;0.90;;;;;;;19.72;52.93;95774.50;4416604;32;20191;-63
2022/07/16 03:05:05;;;;;;;0.80;0.80;;;;;;;19.68;53.52;95770.91;4416233;32;20288;-63
2022/07/16 03:07:32;;;;;;;0.47;0.47;;;;;;;19.67;54.06;95784.72;4413523;32;20279;-63
2022/07/16 03:09:58;;;;;;;0.63;0.63;;;;;;;19.68;53.78;95781.69;4413961;32;20192;-63
2022/07/16 03:12:24;;;;;;;0.23;0.23;;;;;;;19.63;53.54;95778.44;4417296;32;20206;-63
2022/07/16 03:14:49;;;;;;;0.37;0.37;;;;;;;19.76;53.19;95783.44;4407894;32;20243;-63
2022/07/16 03:17:15;;;;;;;1.70;0.90;;;;;;;19.64;54.01;95780.78;4417461;32;20187;-63
2022/07/16 03:19:41;;;;;;;0.60;0.60;;;;;;;19.75;54.48;95784.56;4417797;32;20227;-64
2022/07/16 03:22:08;;;;;;;0.70;0.70;;;;;;;19.68;53.31;95789.75;4417588;32;20191;-64
2022/07/16 03:24:33;;;;;;;0.50;0.50;;;;;;;19.70;53.59;95779.44;4418834;32;20227;-64
2022/07/16 03:26:59;;;;;;;0.80;0.80;;;;;;;19.59;52.53;95789.09;4415827;32;20264;-64
2022/07/16 03:29:24;;;;;;;1.50;0.57;;;;;;;19.65;54.65;95793.13;4414142;32;20192;-64
2022/07/16 03:31:50;;;;;;;0.60;0.60;;;;;;;19.65;53.99;95792.34;4420676;32;20196;-64
2022/07/16 03:34:17;;;;;;;0.50;0.50;;;;;;;19.57;53.35;95799.41;4417914;32;20225;-63
2022/07/16 03:36:43;;;;;;;0.50;0.50;;;;;;;19.67;54.28;95796.25;4417369;32;20200;-63
2022/07/16 03:39:08;;;;;;;0.60;0.60;;;;;;;19.68;54.28;95797.03;4418961;32;20211;-64
2022/07/16 03:41:36;;;;;;;0.37;0.37;;;;;;;19.69;54.72;95799.41;4419249;32;20247;-63
2022/07/16 03:44:06;;;;;;;0.77;0.77;;;;;;;19.62;54.49;95799.19;4416685;32;20246;-64
2022/07/16 03:46:32;;;;;;;0.57;0.57;;;;;;;19.50;54.02;95801.91;4414510;32;20236;-64
2022/07/16 03:48:59;;;;;;;0.63;0.63;;;;;;;19.62;54.60;95801.87;4414610;32;20251;-64
2022/07/16 03:51:25;;;;;;;1.27;1.03;;;;;;;19.51;53.68;95798.88;4412618;32;20183;-64
2022/07/16 03:53:51;;;;;;;0.57;0.57;;;;;;;19.37;54.83;95805.66;4414003;32;20227;-64
2022/07/16 03:56:16;;;;;;;0.80;0.80;;;;;;;19.55;54.48;95801.66;4414695;32;20248;-64
2022/07/16 03:58:42;;;;;;;0.63;0.63;;;;;;;19.60;54.80;95798.72;4416273;32;20210;-65
2022/07/16 04:01:08;;;;;;;0.47;0.47;;;;;;;19.52;54.86;95799.66;4417099;32;20219;-64
2022/07/16 04:03:35;;;;;;;1.53;1.03;;;;;;;19.60;54.50;95801.41;4415034;32;20227;-64
2022/07/16 04:06:00;;;;;;;0.23;0.23;;;;;;;19.51;54.84;95808.84;4410595;32;20191;-64
2022/07/16 04:08:26;;;;;;;0.83;0.83;;;;;;;19.51;55.18;95811.53;4415615;32;20195;-64
2022/07/16 04:10:52;;;;;;;0.40;0.40;;;;;;;19.27;53.84;95816.91;4413906;32;20209;-63
2022/07/16 04:13:19;;;;;;;0.70;0.70;;;;;;;19.44;55.56;95816.66;4414859;32;20206;-64
2022/07/16 04:15:45;;;;;;;0.60;0.60;;;;;;;19.44;55.02;95822.03;4413106;32;20227;-64
2022/07/16 04:18:11;;;;;;;0.53;0.53;;;;;;;19.48;54.53;95812.19;4411978;32;20306;-63
2022/07/16 04:20:38;;;;;;;0.50;0.50;;;;;;;19.55;55.12;95820.50;4412622;32;20263;-63
2022/07/16 04:23:03;;;;;;;0.60;0.60;;;;;;;19.42;55.82;95808.16;4419623;32;20255;-64
2022/07/16 04:25:29;;;;;;;1.07;0.80;;;;;;;19.35;56.47;95816.75;4419325;32;20257;-63
2022/07/16 04:27:55;;;;;;;0.90;0.90;;;;;;;19.30;55.19;95822.41;4417033;32;20180;-63
2022/07/16 04:30:20;;;;;;;0.60;0.60;;;;;;;19.30;56.92;95817.00;4412139;32;20255;-63
2022/07/16 04:32:46;;;;;;;0.57;0.57;;;;;;;19.26;57.86;95818.81;4416596;32;20241;-63
2022/07/16 04:35:13;;;;;;;1.17;0.73;;;;;;;19.30;57.04;95824.31;4413947;32;20196;-63
2022/07/16 04:37:39;;;;;;;0.73;0.73;;;;;;;19.24;56.97;95821.03;4417101;32;20188;-63
2022/07/16 04:40:05;;;;;;;0.60;0.60;;;;;;;19.28;57.25;95821.94;4420701;32;20199;-63
2022/07/16 04:42:32;;;;;;;0.40;0.40;;;;;;;19.09;57.93;95825.19;4418685;32;20366;-63
2022/07/16 04:44:57;;;;;;;1.27;1.17;;;;;;;19.25;57.09;95825.31;4414915;32;20188;-63
2022/07/16 04:47:23;;;;;;;0.70;0.70;;;;;;;19.12;58.46;95829.88;4420412;32;20288;-63
2022/07/16 04:49:48;;;;;;;0.60;0.60;;;;;;;19.25;57.25;95828.00;4417844;32;20191;-63
2022/07/16 04:52:13;;;;;;;0.30;0.30;;;;;;;19.14;57.47;95833.00;4415072;32;20255;-63
2022/07/16 04:54:39;;;;;;;0.30;0.30;;;;;;;19.15;58.36;95837.28;4419964;32;20206;-63
2022/07/16 04:57:04;;;;;;;0.73;0.73;;;;;;;19.20;59.30;95831.69;4418923;32;20237;-63
2022/07/16 04:59:29;;;;;;;0.40;0.40;;;;;;;19.08;57.27;95837.06;4415628;32;20200;-64
2022/07/16 05:02:56;;;;;;;0.67;0.67;;;;;;;19.23;58.83;95841.78;4416251;32;20214;-63
2022/07/16 05:04:41;;;;;;;0.73;0.73;;;;;;;19.09;58.15;95838.63;4418008;32;20293;-63
2022/07/16 05:07:08;;;;;;;0.40;0.40;;;;;;;19.02;56.21;95835.69;4418584;32;20191;-64
2022/07/16 05:09:35;;;;;;;0.50;0.50;;;;;;;19.06;58.87;95842.00;4417773;32;20188;-64
2022/07/16 05:12:00;;;;;;;0.60;0.60;;;;;;;19.04;59.80;95836.16;4418260;32;20191;-63
2022/07/16 05:14:26;;;;;;;1.80;1.27;;;;;;;19.08;57.13;95834.38;4418918;32;20260;-63
2022/07/16 05:16:51;;;;;;;0.63;0.63;;;;;;;19.15;59.46;95842.66;4420649;32;20263;-63
2022/07/16 05:19:16;;;;;;;1.33;1.23;;;;;;;19.18;58.33;95844.69;4415167;32;20191;-63
2022/07/16 05:21:42;;;;;;;0.50;0.50;;;;;;;19.08;58.27;95847.81;4416243;32;20195;-63
2022/07/16 05:24:07;;;;;;;0.90;0.90;;;;;;;19.03;58.11;95848.03;4417108;32;20183;-63
2022/07/16 05:26:33;;;;;;;0.90;0.90;;;;;;;19.17;58.03;95843.09;4418235;32;20222;-64
2022/07/16 05:28:58;;;;;;;0.83;0.83;;;;;;;19.11;59.12;95844.47;4418723;32;20200;-64
2022/07/16 05:31:23;;;;;;;0.50;0.50;;;;;;;19.05;56.36;95843.09;4418476;32;20260;-64
2022/07/16 05:33:49;;;;;;;1.33;0.70;;;;;;;19.19;56.95;95846.25;4410514;32;20216;-64
2022/07/16 05:36:18;;;;;;;0.70;0.70;;;;;;;19.20;58.51;95847.81;4407367;32;20205;-64
2022/07/16 05:38:44;;;;;;;1.93;0.87;;;;;;;19.11;55.48;95844.47;4416178;32;20194;-63
2022/07/16 05:41:11;;;;;;;0.30;0.30;;;;;;;19.08;58.83;95841.66;4416686;32;20172;-63
2022/07/16 05:43:37;;;;;;;0.43;0.43;;;;;;;19.06;58.29;95850.06;4415243;32;20221;-64
2022/07/16 05:46:07;;;;;;;0.53;0.53;;;;;;;19.10;57.55;95847.50;4416179;32;20188;-63
2022/07/16 05:48:32;;;;;;;0.60;0.60;;;;;;;18.97;58.23;95846.66;4413356;32;20187;-63
2022/07/16 05:50:58;;;;;;;0.47;0.47;;;;;;;19.16;57.14;95856.91;4414715;32;20198;-63
2022/07/16 05:53:23;;;;;;;0.50;0.50;;;;;;;19.13;58.33;95852.19;4419447;32;20187;-63
2022/07/16 05:55:48;;;;;;;1.00;0.67;;;;;;;19.22;57.64;95855.56;4417299;32;20195;-63
2022/07/16 05:58:14;;;;;;;0.43;0.43;;;;;;;19.34;56.03;95858.25;4414734;32;20286;-63
2022/07/16 06:00:39;;;;;;;1.33;0.50;;;;;;;19.27;54.69;95857.25;4417183;32;20195;-64
2022/07/16 06:03:05;;;;;;;26.33;1.33;;;;;;;19.30;54.92;95857.38;4418054;32;20254;-64
2022/07/16 06:05:32;;;;;;;0.80;0.80;;;;;;;19.30;54.99;95859.28;4418480;32;20266;-64
2022/07/16 06:07:57;;;;;;;0.43;0.43;;;;;;;19.23;54.92;95867.91;4414614;32;20208;-63
2022/07/16 06:10:22;;;;;;;0.57;0.57;;;;;;;19.24;56.49;95866.78;4417133;32;20203;-63
2022/07/16 06:12:48;;;;;;;0.73;0.73;;;;;;;19.25;54.56;95865.66;4417901;32;20187;-63
2022/07/16 06:15:13;;;;;;;2.10;0.70;;;;;;;19.25;55.46;95859.50;4418396;32;20200;-63
2022/07/16 06:17:39;;;;;;;0.40;0.40;;;;;;;19.40;57.49;95864.19;4417734;32;20184;-63
2022/07/16 06:20:06;;;;;;;0.80;0.80;;;;;;;19.49;54.41;95871.06;4410550;32;20192;-63
2022/07/16 06:22:31;;;;;;;2.13;0.80;;;;;;;19.51;53.17;95868.84;4429307;32;20231;-63
2022/07/16 06:24:57;;;;;;;0.67;0.67;;;;;;;19.55;54.25;95871.63;4413760;32;20233;-63
2022/07/16 06:27:22;;;;;;;0.60;0.60;;;;;;;19.61;55.15;95872.97;4420494;32;20261;-64
2022/07/16 06:29:48;;;;;;;0.50;0.50;;;;;;;19.60;54.35;95876.78;4416454;32;20195;-63
2022/07/16 06:32:13;;;;;;;1.10;0.70;;;;;;;19.74;53.85;95871.88;4413222;32;20187;-63
2022/07/16 06:34:38;;;;;;;0.80;0.80;;;;;;;19.94;52.71;95880.16;4418574;32;20183;-62
2022/07/16 06:37:04;;;;;;;0.97;0.93;;;;;;;20.08;52.08;95878.66;4409332;32;20234;-63
2022/07/16 06:39:29;;;;;;;0.60;0.60;;;;;;;20.04;50.90;95874.28;4397383;32;20191;-63
2022/07/16 06:41:55;;;;;;;0.20;0.20;;;;;;;20.17;50.90;95879.28;4416810;32;20270;-63
2022/07/16 06:44:20;;;;;;;0.87;0.87;;;;;;;20.23;49.91;95882.53;4418981;32;20196;-63
2022/07/16 06:46:45;;;;;;;0.60;0.60;;;;;;;20.29;52.76;95883.88;4415349;32;20319;-63
2022/07/16 06:49:11;;;;;;;0.83;0.70;;;;;;;20.28;51.15;95887.69;4417175;32;20211;-63
2022/07/16 06:51:37;;;;;;;0.60;0.60;;;;;;;20.38;51.45;95883.75;4414927;32;20191;-63
2022/07/16 06:54:03;;;;;;;0.77;0.70;;;;;;;20.36;53.50;95881.41;4416154;32;20248;-63
2022/07/16 06:56:28;;;;;;;0.37;0.37;;;;;;;20.43;53.66;95881.62;4417194;32;20188;-63
2022/07/16 06:58:54;;;;;;;0.93;0.93;;;;;;;20.57;50.91;95879.34;4418937;32;20191;-63
2022/07/16 07:01:20;;;;;;;0.70;0.70;;;;;;;20.44;50.75;95877.78;4418060;32;20207;-63
2022/07/16 07:03:45;;;;;;;0.33;0.33;;;;;;;20.66;50.46;95879.16;4415589;32;20262;-63
2022/07/16 07:06:12;;;;;;;0.87;0.87;;;;;;;20.66;52.31;95879.16;4415877;32;20234;-63
2022/07/16 07:08:37;;;;;;;0.60;0.60;;;;;;;20.86;52.63;95882.78;4414700;32;20192;-63
2022/07/16 07:11:04;;;;;;;0.40;0.40;;;;;;;20.98;49.70;95874.66;4413019;32;20222;-63
2022/07/16 07:13:31;;;;;;;0.67;0.67;;;;;;;20.93;50.69;95875.69;4408260;32;20176;-63
2022/07/16 07:15:57;;;;;;;0.93;0.93;;;;;;;20.91;48.54;95879.84;4417371;32;20262;-64
2022/07/16 07:18:24;;;;;;;4.53;0.97;;;;;;;21.17;48.47;95879.38;4420754;32;20203;-64
2022/07/16 07:20:49;;;;;;;1.00;1.00;;;;;;;21.32;47.64;95877.84;4416672;32;20202;-63
2022/07/16 07:23:14;;;;;;;0.60;0.53;;;;;;;21.45;45.57;95877.37;4417172;32;20275;-64
2022/07/16 07:25:40;;;;;;;0.77;0.77;;;;;;;21.41;49.13;95875.72;4414581;32;20187;-64
2022/07/16 07:28:05;;;;;;;0.80;0.80;;;;;;;21.44;48.22;95885.81;4415840;32;20203;-63
2022/07/16 07:30:31;;;;;;;0.40;0.40;;;;;;;21.33;45.30;95879.41;4414864;32;20244;-64
2022/07/16 07:32:56;;;;;;;1.43;1.33;;;;;;;21.31;45.35;95878.97;4412220;32;20214;-63
2022/07/16 07:35:23;;;;;;;0.67;0.67;;;;;;;21.39;46.09;95883.41;4417482;32;20243;-64
2022/07/16 07:37:49;;;;;;;0.47;0.47;;;;;;;21.53;46.73;95879.13;4404691;32;20181;-64
2022/07/16 07:40:14;;;;;;;0.87;0.87;;;;;;;21.52;45.48;95882.19;4417951;32;20269;-64
2022/07/16 07:42:41;;;;;;;1.37;0.47;;;;;;;21.51;46.46;95884.09;4412139;32;20218;-63
2022/07/16 07:45:08;;;;;;;0.77;0.77;;;;;;;21.55;45.01;95876.87;4414513;32;20191;-63
2022/07/16 07:47:34;;;;;;;0.23;0.23;;;;;;;21.62;46.55;95881.62;4419049;32;20203;-63
2022/07/16 07:50:00;;;;;;;0.67;0.50;;;;;;;21.61;46.33;95872.75;4417318;32;20197;-63
2022/07/16 07:52:26;;;;;;;0.97;0.97;;;;;;;21.65;46.51;95874.75;4417889;32;20203;-63
2022/07/16 07:54:51;;;;;;;0.50;0.50;;;;;;;21.65;49.28;95874.75;4420298;32;20304;-63
2022/07/16 07:57:17;;;;;;;1.07;0.70;;;;;;;21.75;47.36;95872.31;4338250;32;20200;-63
2022/07/16 07:59:42;;;;;;;0.60;0.60;;;;;;;21.72;45.33;95875.72;4395819;32;20218;-63
2022/07/16 08:02:07;;;;;;;0.33;0.33;;;;;;;21.78;46.03;95877.03;4418074;32;20245;-63
2022/07/16 08:04:33;;;;;;;0.50;0.50;;;;;;;21.75;46.02;95877.72;4416962;32;20206;-63
2022/07/16 08:06:59;;;;;;;0.60;0.60;;;;;;;21.84;47.42;95877.50;4415350;32;20240;-63
2022/07/16 08:09:24;;;;;;;0.67;0.67;;;;;;;21.93;45.60;95880.81;4420510;32;20244;-63
2022/07/16 08:11:50;;;;;;;0.30;0.30;;;;;;;21.82;46.98;95875.16;4413680;32;20187;-64
2022/07/16 08:14:15;;;;;;;0.87;0.40;;;;;;;21.84;47.03;95878.28;4416970;32;20333;-63
2022/07/16 08:16:41;;;;;;;0.50;0.50;;;;;;;21.93;45.22;95881.59;4416711;32;20187;-63
2022/07/16 08:19:06;;;;;;;3.30;1.00;;;;;;;22.10;45.45;95879.66;4408500;32;20207;-64
2022/07/16 08:21:31;;;;;;;0.90;0.47;;;;;;;22.12;45.28;95888.22;4416446;32;20353;-63
2022/07/16 08:26:40;;;;;;;1.10;1.03;;;;;;;22.09;46.44;95875.41;4412558;32;20195;-63
2022/07/16 08:29:06;;;;;;;0.87;0.87;;;;;;;21.91;45.49;95880.38;4415252;32;20188;-63
2022/07/16 08:31:31;;;;;;;0.73;0.73;;;;;;;21.90;44.06;95876.91;4417060;32;20253;-63
2022/07/16 08:33:56;;;;;;;1.50;1.40;;;;;;;21.88;45.12;95884.56;4417032;32;20192;-63
2022/07/16 08:36:22;;;;;;;0.93;0.93;;;;;;;21.94;45.77;95880.47;4415649;32;20204;-62
2022/07/16 08:38:47;;;;;;;0.53;0.53;;;;;;;22.01;45.63;95887.22;4416244;32;20251;-62
2022/07/16 08:41:15;;;;;;;0.30;0.30;;;;;;;22.00;44.79;95877.50;4410828;32;20252;-62
2022/07/16 08:43:41;;;;;;;0.30;0.30;;;;;;;22.06;44.72;95884.22;4409815;32;20245;-63
2022/07/16 08:46:07;;;;;;;0.77;0.77;;;;;;;22.05;44.72;95894.22;4418937;32;20246;-62
2022/07/16 08:48:34;;;;;;;2.93;0.93;;;;;;;22.06;44.90;95887.69;4414024;32;20199;-63
2022/07/16 08:51:05;;;;;;;1.33;1.30;;;;;;;21.93;44.38;95887.00;4413494;32;20183;-63
2022/07/16 08:53:32;;;;;;;0.53;0.53;;;;;;;22.04;44.40;95883.78;4414454;32;20232;-63
2022/07/16 08:55:59;;;;;;;0.80;0.80;;;;;;;22.02;43.48;95886.84;4409494;32;20207;-63
2022/07/16 08:58:30;;;;;;;1.30;1.20;;;;;;;22.14;43.50;95886.72;4404940;32;20205;-62
2022/07/16 09:00:58;;;;;;;2.33;0.83;;;;;;;22.11;43.63;95887.44;4413058;32;20188;-63
2022/07/16 09:03:23;;;;;;;0.87;0.87;;;;;;;22.17;42.78;95879.84;4416587;32;20192;-63
2022/07/16 09:05:50;;;;;;;0.80;0.80;;;;;;;22.04;43.44;95889.97;4415884;32;20219;-62
2022/07/16 09:08:19;;;;;;;1.73;1.37;;;;;;;22.11;43.48;95887.44;4414700;32;20175;-62
2022/07/16 09:10:44;;;;;;;0.27;0.27;;;;;;;22.19;42.14;95885.66;4415425;32;20245;-63
2022/07/16 09:13:12;;;;;;;0.40;0.40;;;;;;;22.27;43.81;95890.06;4419386;32;20235;-63
2022/07/16 09:15:39;;;;;;;0.30;0.30;;;;;;;22.11;42.11;95892.84;4409382;32;20225;-63
2022/07/16 09:18:10;;;;;;;0.57;0.57;;;;;;;22.19;43.32;95882.97;4415691;32;20199;-63
2022/07/16 09:20:38;;;;;;;0.80;0.80;;;;;;;22.31;42.18;95890.94;4417458;32;20180;-64
2022/07/16 09:23:04;;;;;;;0.50;0.50;;;;;;;22.21;41.56;95880.69;4408934;32;20247;-62
2022/07/16 09:25:30;;;;;;;0.60;0.60;;;;;;;22.27;43.88;95890.84;4420594;32;20183;-63
2022/07/16 09:27:59;;;;;;;0.70;0.70;;;;;;;22.34;41.48;95884.81;4419419;32;20199;-62
2022/07/16 09:30:27;;;;;;;0.70;0.70;;;;;;;22.35;41.82;95882.91;4407480;32;20245;-63
2022/07/16 09:32:53;;;;;;;1.03;1.03;;;;;;;22.25;42.67;95886.94;4399267;32;20229;-62
2022/07/16 09:35:19;;;;;;;1.83;1.73;;;;;;;22.33;42.01;95880.56;4410459;32;20196;-63
2022/07/16 09:37:46;;;;;;;1.73;1.63;;;;;;;22.45;41.62;95887.75;4419282;32;20187;-62
2022/07/16 09:40:13;;;;;;;0.80;0.80;;;;;;;22.51;42.05;95884.41;4417386;32;20199;-62
2022/07/16 09:42:39;;;;;;;0.53;0.53;;;;;;;22.47;40.57;95878.13;4419000;32;20244;-62
2022/07/16 09:45:06;;;;;;;0.50;0.50;;;;;;;22.42;40.60;95877.66;4418593;32;20210;-62
2022/07/16 09:47:31;;;;;;;0.67;0.67;;;;;;;22.44;40.52;95873.47;4420770;32;20228;-62
2022/07/16 09:49:57;;;;;;;0.80;0.80;;;;;;;22.44;40.75;95875.38;4419682;32;20196;-62
2022/07/16 09:52:34;;;;;;;0.97;0.97;;;;;;;22.58;40.60;95876.44;4419052;32;20211;-62
2022/07/16 09:55:00;;;;;;;1.00;1.00;;;;;;;22.62;40.19;95874.59;4417799;32;20214;-62
2022/07/16 09:57:27;;;;;;;1.07;1.07;;;;;;;22.58;39.62;95862.13;4419980;32;20211;-62
2022/07/16 09:59:54;;;;;;;0.80;0.80;;;;;;;22.56;40.50;95861.72;4420870;32;20196;-63
2022/07/16 10:02:19;;;;;;;1.43;1.07;;;;;;;22.72;42.55;95873.22;4419507;32;20245;-63
2022/07/16 10:04:45;;;;;;;0.80;0.80;;;;;;;22.78;40.86;95877.25;4420528;32;20204;-62
2022/07/16 10:07:10;;;;;;;0.30;0.30;;;;;;;22.79;40.91;95873.41;4419568;32;20210;-63
2022/07/16 10:09:36;;;;;;;0.53;0.53;;;;;;;22.76;40.29;95867.88;4419347;32;20203;-63
2022/07/16 10:12:13;;;;;;;0.50;0.50;;;;;;;22.94;39.98;95877.94;4419020;32;20228;-63
2022/07/16 10:14:44;;;;;;;0.60;0.60;;;;;;;22.99;40.72;95863.31;4419033;32;20249;-63
2022/07/16 10:17:15;;;;;;;0.47;0.47;;;;;;;23.08;39.51;95861.16;4414403;32;20238;-63
2022/07/16 10:19:41;;;;;;;1.17;0.80;;;;;;;23.05;40.77;95864.59;4417956;32;20207;-63
2022/07/16 10:22:22;;;;;;;0.60;0.60;;;;;;;23.09;39.25;95870.06;4417025;32;20226;-63
2022/07/16 10:24:54;;;;;;;0.80;0.80;;;;;;;23.00;40.54;95862.19;4411041;32;20234;-63
2022/07/16 10:27:32;;;;;;;1.70;0.87;;;;;;;23.03;40.91;95856.06;4418880;32;20207;-63
2022/07/16 10:30:24;;;;;;;0.70;0.70;;;;;;;23.01;40.44;95861.03;4416707;32;20188;-63
2022/07/16 10:33:17;;;;;;;0.60;0.60;;;;;;;23.23;39.54;95860.28;4429834;32;20203;-63
2022/07/16 10:35:44;;;;;;;2.53;0.90;;;;;;;23.25;38.88;95866.12;4418269;32;20242;-63
2022/07/16 10:38:18;;;;;;;3.23;1.47;;;;;;;23.17;39.21;95871.75;4419744;32;20301;-63
2022/07/16 10:40:45;;;;;;;2.60;2.40;;;;;;;23.18;39.84;95863.28;4418712;32;20187;-63
2022/07/16 10:43:16;;;;;;;0.93;0.93;;;;;;;23.34;37.90;95873.19;4420199;32;20188;-62
2022/07/16 10:45:56;;;;;;;0.93;0.93;;;;;;;23.29;38.36;95872.34;4420161;32;20196;-63
2022/07/16 10:48:27;;;;;;;1.97;1.87;;;;;;;23.36;39.14;95868.19;4418290;32;20191;-63
2022/07/16 10:51:15;;;;;;;0.57;0.57;;;;;;;23.33;38.51;95863.50;4420187;32;20207;-63
2022/07/16 10:54:16;;;;;;;0.67;0.67;;;;;;;23.35;39.51;95859.28;4417814;32;20187;-63
2022/07/16 10:56:50;;;;;;;1.17;1.00;;;;;;;23.27;37.13;95863.81;4412277;32;20200;-62
2022/07/16 10:59:19;;;;;;;0.70;0.70;;;;;;;23.24;37.71;95853.72;4415712;32;20195;-63
2022/07/16 11:01:46;;;;;;;0.43;0.43;;;;;;;23.37;37.46;95856.22;4418773;32;20214;-63
2022/07/16 11:04:12;;;;;;;0.80;0.80;;;;;;;23.47;36.76;95855.63;4418763;32;20184;-62
2022/07/16 11:06:41;;;;;;;0.80;0.80;;;;;;;23.52;36.16;95863.47;4419391;32;20200;-63
2022/07/16 11:09:08;;;;;;;5.13;4.67;;;;;;;23.47;36.87;95853.72;4417507;32;20256;-62
2022/07/16 11:11:36;;;;;;;1.00;1.00;;;;;;;23.52;35.82;95858.81;4419729;32;20206;-62
2022/07/16 11:14:03;;;;;;;1.03;1.03;;;;;;;23.37;36.32;95848.09;4411237;32;20206;-63
2022/07/16 11:16:29;;;;;;;2.10;2.00;;;;;;;23.36;37.89;95847.31;4412628;32;20196;-63
2022/07/16 11:18:55;;;;;;;2.17;2.07;;;;;;;23.43;37.40;95852.09;4420004;32;20263;-63
2022/07/16 11:21:20;;;;;;;1.30;0.83;;;;;;;23.51;37.15;95862.66;4412535;32;20192;-63
2022/07/16 11:23:50;;;;;;;1.30;1.20;;;;;;;23.49;37.23;95850.59;4416267;32;20302;-63
2022/07/16 11:26:17;;;;;;;0.70;0.70;;;;;;;23.50;36.51;95858.38;4417803;32;20200;-63
2022/07/16 11:29:03;;;;;;;0.77;0.77;;;;;;;23.57;36.08;95855.81;4417938;32;20241;-63
2022/07/16 11:31:30;;;;;;;0.90;0.90;;;;;;;23.56;35.12;95856.19;4407124;32;20187;-63
2022/07/16 11:33:58;;;;;;;0.40;0.40;;;;;;;23.53;36.26;95857.69;4421296;32;20275;-64
2022/07/16 11:36:31;;;;;;;0.57;0.57;;;;;;;23.49;35.59;95864.16;4419587;32;20191;-63
2022/07/16 11:39:08;;;;;;;1.40;0.60;;;;;;;23.49;36.49;95853.31;4413003;32;20188;-63